Terminal Aerodrome Forecast
Issued by NWS Sioux Falls, SD

Home | Current Version | Previous Version | Text Only | Print | Product List | Glossary On
Versions: 1 2 3 4 5 6 7 8 9 10 11 12 13 14 15 16 17 18 19 20
000
FTUS43 KFSD 032326
TAFFSD
TAF
KFSD 032326Z 0400/0424 28004KT P6SM FEW040 BKN050
     FM040200 VRB02KT P6SM SCT050
     FM040700 18004KT P6SM SKC
     FM041500 18008KT P6SM SKC
     FM041800 17012KT P6SM SCT030=

USA.gov is the U.S. government's official web portal to all federal, state and local government web resources and services.